Time;durP1;ratioP1;P1;durP2;ratioP2;P2;SDS_P1;SDS_P2;PMS_P1;PMS_P2;Temp;Humidity;BMP_temperature;BMP_pressure;BME280_temperature;BME280_humidity;BME280_pressure;Samples;Min_cycle;Max_cycle;Signal;HPM_P1;HPM_P2
2022/04/17 00:00:25;;;;;;;5.25;1.80;;;;;;;;;;5111746;28;20012;-62
2022/04/17 00:02:51;;;;;;;8.07;2.10;;;;;;;;;;5101171;28;20024;-61
2022/04/17 00:05:17;;;;;;;5.25;1.98;;;;;;;;;;5106579;28;20022;-60
2022/04/17 00:07:44;;;;;;;3.13;1.55;;;;;;;;;;5110694;28;20054;-61
2022/04/17 00:10:10;;;;;;;5.25;1.85;;;;;;;;;;5097536;28;20023;-62
2022/04/17 00:12:37;;;;;;;3.65;1.67;;;;;;;;;;5103008;28;20395;-61
2022/04/17 00:15:03;;;;;;;4.65;1.75;;;;;;;;;;5104309;28;20016;-61
2022/04/17 00:17:30;;;;;;;4.20;1.73;;;;;;;;;;5095610;28;20039;-61
2022/04/17 00:19:56;;;;;;;3.20;1.40;;;;;;;;;;5108402;28;20012;-61
2022/04/17 00:22:25;;;;;;;3.35;1.52;;;;;;;;;;5098542;28;20020;-61
2022/04/17 00:24:52;;;;;;;3.85;1.60;;;;;;;;;;5100511;28;20035;-61
2022/04/17 00:27:18;;;;;;;3.22;1.60;;;;;;;;;;5106273;28;20135;-61
2022/04/17 00:29:44;;;;;;;3.53;1.67;;;;;;;;;;5094850;28;20035;-62
2022/04/17 00:32:11;;;;;;;5.28;2.08;;;;;;;;;;5106468;28;20051;-62
2022/04/17 00:34:37;;;;;;;4.22;1.60;;;;;;;;;;5100253;28;20015;-62
2022/04/17 00:37:04;;;;;;;4.68;1.60;;;;;;;;;;5099012;28;20024;-62
2022/04/17 00:39:30;;;;;;;3.88;1.50;;;;;;;;;;5107882;28;20110;-61
2022/04/17 00:41:56;;;;;;;3.97;1.60;;;;;;;;;;5076497;28;20031;-61
2022/04/17 00:44:22;;;;;;;3.80;1.63;;;;;;;;;;5104302;28;20032;-62
2022/04/17 00:46:48;;;;;;;4.45;1.80;;;;;;;;;;5101673;28;20027;-61
2022/04/17 00:49:15;;;;;;;3.60;1.65;;;;;;;;;;5097096;28;20111;-62
2022/04/17 00:51:42;;;;;;;5.57;1.83;;;;;;;;;;5107596;28;20031;-61
2022/04/17 00:54:12;;;;;;;4.15;1.52;;;;;;;;;;5095910;28;20057;-62
2022/04/17 00:56:38;;;;;;;5.22;1.85;;;;;;;;;;5102245;28;20364;-61
2022/04/17 00:59:06;;;;;;;3.40;1.50;;;;;;;;;;5085954;28;20050;-62
2022/04/17 01:01:33;;;;;;;6.05;1.55;;;;;;;;;;5110844;28;20068;-61
2022/04/17 01:03:59;;;;;;;3.88;1.38;;;;;;;;;;5094473;28;20478;-62
2022/04/17 01:06:26;;;;;;;9.18;2.10;;;;;;;;;;5110932;28;20103;-62
2022/04/17 01:08:52;;;;;;;8.13;1.63;;;;;;;;;;5080488;28;20115;-61
2022/04/17 01:11:18;;;;;;;5.60;1.92;;;;;;;;;;5090054;28;20032;-62
2022/04/17 01:13:45;;;;;;;4.57;1.77;;;;;;;;;;5090926;28;20471;-61
2022/04/17 01:16:11;;;;;;;3.78;1.40;;;;;;;;;;5090897;28;20506;-62
2022/04/17 01:18:54;;;;;;;3.15;1.48;;;;;;;;;;5090938;28;20356;-61
2022/04/17 01:21:20;;;;;;;;;;;;;;;;;;5091433;28;20054;-62
2022/04/17 01:29:15;;;;;;;4.78;1.60;;;;;;;;;;5091040;28;20074;-61
2022/04/17 01:31:42;;;;;;;3.60;1.60;;;;;;;;;;5090737;28;20114;-62
2022/04/17 01:34:08;;;;;;;3.92;1.40;;;;;;;;;;5090623;28;20030;-62
2022/04/17 01:36:34;;;;;;;3.67;1.38;;;;;;;;;;5094331;28;20547;-62
2022/04/17 01:39:00;;;;;;;3.78;1.42;;;;;;;;;;5101273;28;20051;-61
2022/04/17 01:41:26;;;;;;;3.45;1.45;;;;;;;;;;5110565;28;20052;-61
2022/04/17 01:43:52;;;;;;;2.97;1.40;;;;;;;;;;5110530;28;20035;-61
2022/04/17 01:46:18;;;;;;;3.88;1.98;;;;;;;;;;5110909;28;20094;-62
2022/04/17 01:48:44;;;;;;;4.35;1.75;;;;;;;;;;5110850;28;20028;-61
2022/04/17 01:51:10;;;;;;;3.28;1.55;;;;;;;;;;5110888;28;20043;-62
2022/04/17 01:53:36;;;;;;;3.15;1.58;;;;;;;;;;5110971;28;20020;-62
2022/04/17 01:56:03;;;;;;;4.32;1.50;;;;;;;;;;5110876;28;20140;-61
2022/04/17 01:58:29;;;;;;;5.00;1.42;;;;;;;;;;5108460;28;20019;-61
2022/04/17 02:00:55;;;;;;;4.40;1.60;;;;;;;;;;5104914;28;20077;-61
2022/04/17 02:03:21;;;;;;;3.80;1.42;;;;;;;;;;5110622;28;20020;-61
2022/04/17 02:05:47;;;;;;;3.85;1.80;;;;;;;;;;5110721;28;20394;-62
2022/04/17 02:08:15;;;;;;;7.25;1.50;;;;;;;;;;5110870;28;20059;-61
2022/04/17 02:10:41;;;;;;;5.78;2.30;;;;;;;;;;5110643;28;20110;-61
2022/04/17 02:13:07;;;;;;;5.45;1.80;;;;;;;;;;5110669;28;20604;-61
2022/04/17 02:15:33;;;;;;;3.92;1.55;;;;;;;;;;5110551;28;20031;-62
2022/04/17 02:17:59;;;;;;;4.88;1.98;;;;;;;;;;5103453;28;20514;-61
2022/04/17 02:20:26;;;;;;;3.92;1.88;;;;;;;;;;5090146;28;20028;-62
2022/04/17 02:22:52;;;;;;;4.35;1.98;;;;;;;;;;5092780;28;20020;-62
2022/04/17 02:25:18;;;;;;;4.38;1.95;;;;;;;;;;5093904;28;20024;-62
2022/04/17 02:27:45;;;;;;;5.07;1.95;;;;;;;;;;5093855;28;20047;-62
2022/04/17 02:30:11;;;;;;;4.13;1.55;;;;;;;;;;5093907;28;20016;-61
2022/04/17 02:32:37;;;;;;;4.00;1.63;;;;;;;;;;5093952;28;20107;-61
2022/04/17 02:35:03;;;;;;;3.58;1.52;;;;;;;;;;5093700;28;20016;-61
2022/04/17 02:37:29;;;;;;;4.43;1.90;;;;;;;;;;5096652;28;20479;-62
2022/04/17 02:39:58;;;;;;;4.45;1.98;;;;;;;;;;5093657;28;20016;-62
2022/04/17 02:42:24;;;;;;;5.57;2.05;;;;;;;;;;5093786;28;20024;-62
2022/04/17 02:44:50;;;;;;;3.80;1.58;;;;;;;;;;5075368;28;20082;-61
2022/04/17 02:50:01;;;;;;;3.75;1.55;;;;;;;;;;5093397;28;20035;-62
2022/04/17 02:52:27;;;;;;;4.07;1.83;;;;;;;;;;5093517;28;20031;-61
2022/04/17 02:54:54;;;;;;;3.85;1.73;;;;;;;;;;5092805;28;20179;-61
2022/04/17 02:57:20;;;;;;;3.92;1.85;;;;;;;;;;5109849;28;20431;-61
2022/04/17 02:59:46;;;;;;;4.65;1.50;;;;;;;;;;5115450;28;20023;-61
2022/04/17 03:07:41;;;;;;;4.32;1.77;;;;;;;;;;5113806;28;20026;-61
2022/04/17 03:10:08;;;;;;;3.65;1.80;;;;;;;;;;5113780;28;20668;-61
2022/04/17 03:12:40;;;;;;;4.13;1.80;;;;;;;;;;5113820;28;20031;-61
2022/04/17 03:15:07;;;;;;;4.70;2.00;;;;;;;;;;5113659;28;20020;-61
2022/04/17 03:17:33;;;;;;;3.97;1.63;;;;;;;;;;5113683;28;20527;-61
2022/04/17 03:19:59;;;;;;;3.88;1.77;;;;;;;;;;5113779;28;20533;-62
2022/04/17 03:22:25;;;;;;;4.82;1.73;;;;;;;;;;5113650;28;20031;-61
2022/04/17 03:24:51;;;;;;;3.08;1.60;;;;;;;;;;5113483;28;20024;-62
2022/04/17 03:27:18;;;;;;;3.78;1.75;;;;;;;;;;5113488;28;20097;-61
2022/04/17 03:29:44;;;;;;;3.88;1.70;;;;;;;;;;5113309;28;20565;-61
2022/04/17 03:32:10;;;;;;;4.88;2.00;;;;;;;;;;5113397;28;20096;-62
2022/04/17 03:34:36;;;;;;;6.28;1.92;;;;;;;;;;5112541;28;20047;-62
2022/04/17 03:37:03;;;;;;;3.60;1.50;;;;;;;;;;5113533;28;20027;-61
2022/04/17 03:39:29;;;;;;;4.72;2.00;;;;;;;;;;5113339;28;20026;-62
2022/04/17 03:41:55;;;;;;;3.85;1.80;;;;;;;;;;5113200;28;20106;-62
2022/04/17 03:44:21;;;;;;;3.75;1.60;;;;;;;;;;5113030;28;20494;-62
2022/04/17 03:46:51;;;;;;;3.55;1.70;;;;;;;;;;5112983;28;20031;-62
2022/04/17 03:49:17;;;;;;;4.28;1.73;;;;;;;;;;5112931;28;20018;-62
2022/04/17 03:51:43;;;;;;;4.78;1.77;;;;;;;;;;5097869;28;20032;-62
2022/04/17 03:54:10;;;;;;;3.85;1.60;;;;;;;;;;5092510;28;20051;-62
2022/04/17 03:56:36;;;;;;;3.17;1.52;;;;;;;;;;5092304;28;20615;-62
2022/04/17 03:59:02;;;;;;;3.33;1.75;;;;;;;;;;5092476;28;20055;-61
2022/04/17 04:01:29;;;;;;;3.00;1.35;;;;;;;;;;5092288;28;20028;-62
2022/04/17 04:03:55;;;;;;;5.35;1.85;;;;;;;;;;5092397;28;20028;-62
2022/04/17 04:06:21;;;;;;;4.22;1.73;;;;;;;;;;5092475;28;20620;-62
2022/04/17 04:08:49;;;;;;;3.45;1.52;;;;;;;;;;5092389;28;20024;-61
2022/04/17 04:11:15;;;;;;;5.40;1.58;;;;;;;;;;5092093;28;20454;-62
2022/04/17 04:13:44;;;;;;;3.08;1.40;;;;;;;;;;5074015;28;20051;-62
2022/04/17 04:16:10;;;;;;;3.63;1.45;;;;;;;;;;5092281;28;20473;-61
2022/04/17 04:18:36;;;;;;;3.88;1.55;;;;;;;;;;5092014;28;20023;-61
2022/04/17 04:21:03;;;;;;;5.03;1.50;;;;;;;;;;5073919;28;20520;-61
2022/04/17 04:23:33;;;;;;;4.13;1.42;;;;;;;;;;5091937;28;20032;-62
2022/04/17 04:25:59;;;;;;;4.68;1.33;;;;;;;;;;5092051;28;20051;-62
2022/04/17 04:28:38;;;;;;;3.13;1.50;;;;;;;;;;5091896;28;20028;-62
2022/04/17 04:31:05;;;;;;;2.55;1.23;;;;;;;;;;5091832;28;20107;-62
2022/04/17 04:33:32;;;;;;;3.38;1.55;;;;;;;;;;5091708;28;20027;-62
2022/04/17 04:36:02;;;;;;;3.38;1.30;;;;;;;;;;5091690;28;20068;-62
2022/04/17 04:38:28;;;;;;;4.78;1.83;;;;;;;;;;5091700;28;20108;-61
2022/04/17 04:40:54;;;;;;;3.75;1.45;;;;;;;;;;5091663;28;20376;-61
2022/04/17 04:43:21;;;;;;;3.42;1.60;;;;;;;;;;5091425;28;20483;-61
2022/04/17 04:51:16;;;;;;;3.38;1.42;;;;;;;;;;5091235;28;20510;-62
2022/04/17 04:53:42;;;;;;;4.10;1.45;;;;;;;;;;5091473;28;20050;-61
2022/04/17 04:56:09;;;;;;;6.10;1.50;;;;;;;;;;5091948;28;20032;-61
2022/04/17 04:58:36;;;;;;;3.60;1.55;;;;;;;;;;5091946;28;20038;-61
2022/04/17 05:01:02;;;;;;;3.65;1.50;;;;;;;;;;5091347;28;20028;-61
2022/04/17 05:03:28;;;;;;;3.22;1.67;;;;;;;;;;5091200;28;20022;-62
2022/04/17 05:05:54;;;;;;;3.05;1.40;;;;;;;;;;5091234;28;20062;-61
2022/04/17 05:08:20;;;;;;;3.63;1.50;;;;;;;;;;5091143;28;20387;-62
2022/04/17 05:10:47;;;;;;;3.58;1.40;;;;;;;;;;5091069;28;20043;-61
2022/04/17 05:13:13;;;;;;;6.38;1.38;;;;;;;;;;5091168;28;20048;-62
2022/04/17 05:15:39;;;;;;;3.35;1.30;;;;;;;;;;5091027;28;20402;-61
2022/04/17 05:18:06;;;;;;;6.07;1.33;;;;;;;;;;5090989;28;20028;-63
2022/04/17 05:20:34;;;;;;;2.78;1.20;;;;;;;;;;5091038;28;20024;-61
2022/04/17 05:23:15;;;;;;;3.35;1.48;;;;;;;;;;5072718;28;20099;-61
2022/04/17 05:25:42;;;;;;;3.17;1.48;;;;;;;;;;5091069;28;20104;-62
2022/04/17 05:28:08;;;;;;;2.80;1.40;;;;;;;;;;5072757;28;20509;-62
2022/04/17 05:30:34;;;;;;;2.83;1.17;;;;;;;;;;5090858;28;20491;-62
2022/04/17 05:33:00;;;;;;;4.80;1.40;;;;;;;;;;5072860;28;20028;-62
2022/04/17 05:35:26;;;;;;;2.50;1.10;;;;;;;;;;5090867;28;20044;-62
2022/04/17 05:37:52;;;;;;;3.33;1.58;;;;;;;;;;5090701;28;20082;-62
2022/04/17 05:40:18;;;;;;;5.32;1.48;;;;;;;;;;5090763;28;20030;-62
2022/04/17 05:42:44;;;;;;;3.80;1.13;;;;;;;;;;5072467;28;20108;-62
2022/04/17 05:45:10;;;;;;;3.58;1.30;;;;;;;;;;5090566;28;20097;-61
2022/04/17 05:47:36;;;;;;;3.15;1.40;;;;;;;;;;5090666;28;20020;-61
2022/04/17 05:50:03;;;;;;;3.38;1.40;;;;;;;;;;5090244;28;20038;-61
2022/04/17 05:52:29;;;;;;;3.65;1.20;;;;;;;;;;5090466;28;20080;-62
2022/04/17 05:54:57;;;;;;;4.57;1.30;;;;;;;;;;5090559;28;20020;-61
2022/04/17 05:57:23;;;;;;;4.38;1.67;;;;;;;;;;5094335;28;20024;-62
2022/04/17 05:59:49;;;;;;;3.13;1.35;;;;;;;;;;5097253;28;20185;-62
2022/04/17 06:02:15;;;;;;;5.22;1.42;;;;;;;;;;5097395;28;20020;-62
2022/04/17 06:04:42;;;;;;;4.80;1.42;;;;;;;;;;5100839;28;20028;-61
2022/04/17 06:07:11;;;;;;;3.13;1.30;;;;;;;;;;5114865;28;20115;-62
2022/04/17 06:09:37;;;;;;;3.47;1.40;;;;;;;;;;5116214;28;20632;-61
2022/04/17 06:12:03;;;;;;;3.72;1.33;;;;;;;;;;5117057;28;20031;-61
2022/04/17 06:14:29;;;;;;;4.10;1.55;;;;;;;;;;5104082;28;20031;-62
2022/04/17 06:16:55;;;;;;;2.53;1.27;;;;;;;;;;5113225;28;20062;-62
2022/04/17 06:19:22;;;;;;;2.22;1.08;;;;;;;;;;5099765;28;20027;-61
2022/04/17 06:21:48;;;;;;;2.90;1.20;;;;;;;;;;5114693;28;20020;-61
2022/04/17 06:24:14;;;;;;;2.47;1.27;;;;;;;;;;5116941;28;20586;-61
2022/04/17 06:26:40;;;;;;;2.78;1.23;;;;;;;;;;5102609;28;20036;-61
2022/04/17 06:29:08;;;;;;;4.57;1.48;;;;;;;;;;5113412;28;20019;-60
2022/04/17 06:31:35;;;;;;;3.38;1.45;;;;;;;;;;5101271;28;20521;-60
2022/04/17 06:34:01;;;;;;;2.75;1.30;;;;;;;;;;5108095;28;20375;-60
2022/04/17 06:36:27;;;;;;;2.70;1.38;;;;;;;;;;5109149;28;20059;-61
2022/04/17 06:38:53;;;;;;;3.03;1.30;;;;;;;;;;5100472;28;20031;-60
2022/04/17 06:41:19;;;;;;;2.75;1.25;;;;;;;;;;5112585;28;20024;-61
2022/04/17 06:43:45;;;;;;;2.92;1.17;;;;;;;;;;5102660;28;20054;-61
2022/04/17 06:46:11;;;;;;;3.03;1.25;;;;;;;;;;5106298;28;20062;-61
2022/04/17 06:48:37;;;;;;;2.03;1.00;;;;;;;;;;5110331;28;20019;-61
2022/04/17 06:51:04;;;;;;;3.08;1.20;;;;;;;;;;5089892;28;20072;-62
2022/04/17 06:53:31;;;;;;;4.38;1.42;;;;;;;;;;5112554;28;20085;-60
2022/04/17 06:55:57;;;;;;;3.47;1.27;;;;;;;;;;5080194;28;20601;-61
2022/04/17 06:58:23;;;;;;;2.55;1.23;;;;;;;;;;5101752;28;20015;-61
2022/04/17 07:00:49;;;;;;;3.15;1.40;;;;;;;;;;5112085;28;20030;-61
2022/04/17 07:03:16;;;;;;;6.05;1.58;;;;;;;;;;5102594;28;20024;-62
2022/04/17 07:05:42;;;;;;;3.05;1.42;;;;;;;;;;5099909;28;20528;-62
2022/04/17 07:08:09;;;;;;;5.00;1.02;;;;;;;;;;5094924;28;20020;-62
2022/04/17 07:10:37;;;;;;;3.03;0.95;;;;;;;;;;5093965;28;20077;-62
2022/04/17 07:13:04;;;;;;;3.13;1.20;;;;;;;;;;5094282;28;20024;-62
2022/04/17 07:15:30;;;;;;;4.70;1.20;;;;;;;;;;5094297;28;20024;-62
2022/04/17 07:17:56;;;;;;;5.75;1.08;;;;;;;;;;5094309;28;20020;-63
2022/04/17 07:20:26;;;;;;;2.90;1.30;;;;;;;;;;5093915;28;20528;-62
2022/04/17 07:22:53;;;;;;;2.75;1.20;;;;;;;;;;5093743;28;20024;-62
2022/04/17 07:25:19;;;;;;;2.78;1.25;;;;;;;;;;5097747;28;20043;-62
2022/04/17 07:27:47;;;;;;;3.05;1.38;;;;;;;;;;5111280;28;20027;-62
2022/04/17 07:30:14;;;;;;;6.50;1.42;;;;;;;;;;5113295;28;20019;-62
2022/04/17 07:32:41;;;;;;;4.05;1.50;;;;;;;;;;5095341;28;20036;-63
2022/04/17 07:35:08;;;;;;;4.28;1.38;;;;;;;;;;5113811;28;20053;-62
2022/04/17 07:37:35;;;;;;;3.80;1.25;;;;;;;;;;5113715;28;20073;-64
2022/04/17 07:40:02;;;;;;;3.67;1.23;;;;;;;;;;5114074;28;20020;-63
2022/04/17 07:42:28;;;;;;;4.65;1.23;;;;;;;;;;5114101;28;20020;-63
2022/04/17 07:44:54;;;;;;;2.75;1.35;;;;;;;;;;5113481;28;20052;-61
2022/04/17 07:47:20;;;;;;;6.55;1.60;;;;;;;;;;5113542;28;20020;-61
2022/04/17 07:49:46;;;;;;;2.13;1.08;;;;;;;;;;5095131;28;20073;-61
2022/04/17 07:52:12;;;;;;;6.57;1.33;;;;;;;;;;5113310;28;20118;-61
2022/04/17 07:54:39;;;;;;;3.22;1.23;;;;;;;;;;5113274;28;20079;-61
2022/04/17 07:57:06;;;;;;;3.25;1.20;;;;;;;;;;5113366;28;20015;-62
2022/04/17 07:59:32;;;;;;;3.55;1.50;;;;;;;;;;5113197;28;20020;-62
2022/04/17 08:02:11;;;;;;;3.13;1.17;;;;;;;;;;5113457;28;20077;-62
2022/04/17 08:04:40;;;;;;;3.00;1.30;;;;;;;;;;5113408;28;20020;-61
2022/04/17 08:07:06;;;;;;;2.63;1.10;;;;;;;;;;5113273;28;20043;-62
2022/04/17 08:09:32;;;;;;;2.83;1.17;;;;;;;;;;5113280;28;20019;-61
2022/04/17 08:12:01;;;;;;;3.35;1.30;;;;;;;;;;5094902;28;20036;-61
2022/04/17 08:14:27;;;;;;;3.30;1.15;;;;;;;;;;5113126;28;20016;-62
2022/04/17 08:16:53;;;;;;;3.20;1.20;;;;;;;;;;5112955;28;20050;-62
2022/04/17 08:19:19;;;;;;;3.67;1.35;;;;;;;;;;5094182;28;20028;-63
2022/04/17 08:21:45;;;;;;;4.47;1.30;;;;;;;;;;5112998;28;20068;-62
2022/04/17 08:24:11;;;;;;;5.40;1.13;;;;;;;;;;5112184;28;20015;-61
2022/04/17 08:26:37;;;;;;;6.40;1.25;;;;;;;;;;5101295;28;20028;-62
2022/04/17 08:29:03;;;;;;;3.40;1.10;;;;;;;;;;5101372;28;20564;-62
2022/04/17 08:31:29;;;;;;;4.65;1.13;;;;;;;;;;5100945;28;20035;-62
2022/04/17 08:33:55;;;;;;;3.58;0.93;;;;;;;;;;5112055;28;20030;-62
2022/04/17 08:36:21;;;;;;;4.43;1.10;;;;;;;;;;5102643;28;20020;-62
2022/04/17 08:38:47;;;;;;;4.32;1.33;;;;;;;;;;5112410;28;20028;-62
2022/04/17 08:41:15;;;;;;;2.40;1.08;;;;;;;;;;5095445;28;20050;-62
2022/04/17 08:43:43;;;;;;;2.40;1.10;;;;;;;;;;5106922;28;20030;-62
2022/04/17 08:46:11;;;;;;;6.78;1.77;;;;;;;;;;5100998;28;20035;-61
2022/04/17 08:48:37;;;;;;;9.48;2.13;;;;;;;;;;5100919;28;20047;-63
2022/04/17 08:51:05;;;;;;;7.05;1.77;;;;;;;;;;5111690;28;20396;-62
2022/04/17 08:53:34;;;;;;;7.00;1.60;;;;;;;;;;5107324;28;20057;-61
2022/04/17 08:56:00;;;;;;;11.00;1.63;;;;;;;;;;5099111;28;20020;-62
2022/04/17 08:58:26;;;;;;;7.25;1.88;;;;;;;;;;5100820;28;20099;-62
2022/04/17 09:00:52;;;;;;;6.03;2.20;;;;;;;;;;5106164;28;20094;-61
2022/04/17 09:03:18;;;;;;;21.00;2.47;;;;;;;;;;5111798;28;20024;-61
2022/04/17 09:05:44;;;;;;;13.32;2.30;;;;;;;;;;5111918;28;20027;-61
2022/04/17 09:08:17;;;;;;;9.20;2.25;;;;;;;;;;5106044;28;20091;-61
2022/04/17 09:10:57;;;;;;;16.38;2.47;;;;;;;;;;5102697;28;20063;-61
2022/04/17 09:13:33;;;;;;;9.98;1.70;;;;;;;;;;5090824;28;20024;-62
2022/04/17 09:16:01;;;;;;;10.18;1.60;;;;;;;;;;5091236;28;20048;-62
2022/04/17 09:18:28;;;;;;;7.75;1.58;;;;;;;;;;5091316;28;20047;-61
2022/04/17 09:20:55;;;;;;;90.55;8.95;;;;;;;;;;5091687;28;20091;-61
2022/04/17 09:23:34;;;;;;;47.05;6.85;;;;;;;;;;5091573;28;20414;-61
2022/04/17 09:26:00;;;;;;;43.90;5.50;;;;;;;;;;5073346;28;20034;-61
2022/04/17 09:28:33;;;;;;;50.38;5.78;;;;;;;;;;5091490;28;20421;-62
2022/04/17 09:31:01;;;;;;;51.80;5.72;;;;;;;;;;5091254;28;20391;-61
2022/04/17 09:33:35;;;;;;;40.03;4.60;;;;;;;;;;5091239;28;20356;-61
2022/04/17 09:36:01;;;;;;;46.78;4.97;;;;;;;;;;5073382;28;20027;-61
2022/04/17 09:38:30;;;;;;;38.35;5.63;;;;;;;;;;5091537;28;20584;-62
2022/04/17 09:41:06;;;;;;;28.83;4.65;;;;;;;;;;5091365;28;20375;-61
2022/04/17 09:43:35;;;;;;;23.23;3.35;;;;;;;;;;5091224;28;20020;-62
2022/04/17 09:46:02;;;;;;;34.60;3.70;;;;;;;;;;5091117;28;20032;-62
2022/04/17 09:48:31;;;;;;;33.72;3.72;;;;;;;;;;5091284;28;20088;-62
2022/04/17 09:50:57;;;;;;;30.85;3.80;;;;;;;;;;5090875;28;20027;-62
2022/04/17 09:53:30;;;;;;;23.20;3.65;;;;;;;;;;5090982;28;20024;-61
2022/04/17 09:56:09;;;;;;;23.98;4.13;;;;;;;;;;5091320;28;20048;-62
2022/04/17 09:58:39;;;;;;;16.35;3.20;;;;;;;;;;5091301;28;20024;-62
2022/04/17 10:01:06;;;;;;;19.27;3.10;;;;;;;;;;5091334;28;20471;-62
2022/04/17 10:03:35;;;;;;;11.38;2.95;;;;;;;;;;5091192;28;20498;-61
2022/04/17 10:06:02;;;;;;;15.82;3.10;;;;;;;;;;5091260;28;20639;-62
2022/04/17 10:08:28;;;;;;;11.38;2.60;;;;;;;;;;5091430;28;20012;-62
2022/04/17 10:10:54;;;;;;;18.92;2.53;;;;;;;;;;5091147;28;20028;-62
2022/04/17 10:13:21;;;;;;;13.77;2.42;;;;;;;;;;5091015;28;20471;-62
2022/04/17 10:15:48;;;;;;;19.40;2.67;;;;;;;;;;5091077;28;20374;-63
2022/04/17 10:18:15;;;;;;;11.88;2.28;;;;;;;;;;5091089;28;20024;-62
2022/04/17 10:20:41;;;;;;;17.42;2.63;;;;;;;;;;5091208;28;20470;-62
2022/04/17 10:23:10;;;;;;;13.60;2.35;;;;;;;;;;5091189;28;20077;-62
2022/04/17 10:25:37;;;;;;;14.43;2.28;;;;;;;;;;5091053;28;20407;-62
2022/04/17 10:28:04;;;;;;;14.65;2.50;;;;;;;;;;5091133;28;20027;-62
2022/04/17 10:30:42;;;;;;;13.23;2.00;;;;;;;;;;5090926;28;20021;-62
2022/04/17 10:33:14;;;;;;;14.55;2.53;;;;;;;;;;5072852;28;20024;-62
2022/04/17 10:35:41;;;;;;;10.45;1.70;;;;;;;;;;5091012;28;20021;-63
2022/04/17 10:38:13;;;;;;;11.82;2.15;;;;;;;;;;5072974;28;20027;-61
2022/04/17 10:40:39;;;;;;;7.63;1.65;;;;;;;;;;5090926;28;20103;-62
2022/04/17 10:43:06;;;;;;;7.30;1.55;;;;;;;;;;5092071;28;20466;-62
2022/04/17 10:45:32;;;;;;;12.95;2.33;;;;;;;;;;5094381;28;20048;-62
2022/04/17 10:48:02;;;;;;;8.52;1.83;;;;;;;;;;5094561;28;20379;-62
2022/04/17 10:50:30;;;;;;;4.57;1.77;;;;;;;;;;5094301;28;20022;-62
2022/04/17 10:52:56;;;;;;;9.23;2.15;;;;;;;;;;5094374;28;20106;-62
2022/04/17 10:55:22;;;;;;;5.85;1.25;;;;;;;;;;5094652;28;20391;-61
2022/04/17 10:57:50;;;;;;;9.52;1.70;;;;;;;;;;5094882;28;20616;-62
2022/04/17 11:00:28;;;;;;;7.35;1.83;;;;;;;;;;5094537;28;20107;-61
2022/04/17 11:02:54;;;;;;;8.68;1.85;;;;;;;;;;5076167;28;20042;-61
2022/04/17 11:06:22;;;;;;;8.52;1.60;;;;;;;;;;5094322;28;20051;-61
2022/04/17 11:08:22;;;;;;;5.63;1.67;;;;;;;;;;5072570;28;20462;-61
2022/04/17 11:11:03;;;;;;;4.95;1.52;;;;;;;;;;5094301;28;20020;-62
2022/04/17 11:13:29;;;;;;;7.03;1.50;;;;;;;;;;5094205;28;20063;-62
2022/04/17 11:15:56;;;;;;;4.72;1.35;;;;;;;;;;5075987;28;20024;-62
2022/04/17 11:18:27;;;;;;;7.15;1.35;;;;;;;;;;5094230;28;20540;-61
2022/04/17 11:20:54;;;;;;;4.22;1.55;;;;;;;;;;5093983;28;20031;-61
2022/04/17 11:23:39;;;;;;;7.43;1.52;;;;;;;;;;5093702;28;20077;-62
2022/04/17 11:26:05;;;;;;;8.15;1.30;;;;;;;;;;5093836;28;20093;-62
2022/04/17 11:28:36;;;;;;;7.97;1.92;;;;;;;;;;5093733;28;20016;-62
2022/04/17 11:31:02;;;;;;;4.93;1.55;;;;;;;;;;5093923;28;20428;-62
2022/04/17 11:33:28;;;;;;;3.08;1.17;;;;;;;;;;5093746;28;20016;-62
2022/04/17 11:35:54;;;;;;;3.38;1.10;;;;;;;;;;5093903;28;20028;-62
2022/04/17 11:38:20;;;;;;;6.05;1.20;;;;;;;;;;5093798;28;20016;-62
2022/04/17 11:40:48;;;;;;;4.97;1.50;;;;;;;;;;5093767;28;20020;-62
2022/04/17 11:43:16;;;;;;;3.45;1.38;;;;;;;;;;5093576;28;20558;-63
2022/04/17 11:45:45;;;;;;;7.20;1.50;;;;;;;;;;5093465;28;20076;-63
2022/04/17 11:48:11;;;;;;;6.45;1.20;;;;;;;;;;5093529;28;20024;-62
2022/04/17 11:50:38;;;;;;;2.53;1.10;;;;;;;;;;5093245;28;20025;-61
2022/04/17 11:53:24;;;;;;;3.72;1.30;;;;;;;;;;5093469;28;20024;-62
2022/04/17 11:55:51;;;;;;;3.03;1.23;;;;;;;;;;5092615;28;20494;-62
2022/04/17 11:58:24;;;;;;;4.68;1.30;;;;;;;;;;5093607;28;20110;-62
2022/04/17 12:00:57;;;;;;;2.90;1.20;;;;;;;;;;5093510;28;20044;-62
2022/04/17 12:03:32;;;;;;;3.78;1.30;;;;;;;;;;5093030;28;20016;-62
2022/04/17 12:05:59;;;;;;;4.22;1.23;;;;;;;;;;5093336;28;20430;-62
2022/04/17 12:08:32;;;;;;;3.65;1.33;;;;;;;;;;5075167;28;20020;-62
2022/04/17 12:10:58;;;;;;;4.25;1.33;;;;;;;;;;5092906;28;20052;-62
2022/04/17 12:13:24;;;;;;;2.80;1.27;;;;;;;;;;5092716;28;20035;-62
2022/04/17 12:16:04;;;;;;;3.65;1.10;;;;;;;;;;5092705;28;20438;-62
2022/04/17 12:18:30;;;;;;;3.30;1.15;;;;;;;;;;5092754;28;20463;-62
2022/04/17 12:21:02;;;;;;;4.22;1.02;;;;;;;;;;5092930;28;20054;-62
2022/04/17 12:23:34;;;;;;;2.85;1.00;;;;;;;;;;5092774;28;20069;-62
2022/04/17 12:26:02;;;;;;;2.88;1.08;;;;;;;;;;5092887;28;20073;-62
2022/04/17 12:28:29;;;;;;;3.10;1.08;;;;;;;;;;5092686;28;20051;-62
2022/04/17 12:30:55;;;;;;;5.15;1.70;;;;;;;;;;5074413;28;20097;-62
2022/04/17 12:33:22;;;;;;;3.42;1.23;;;;;;;;;;5092529;28;20024;-62
2022/04/17 12:36:01;;;;;;;3.35;1.10;;;;;;;;;;5092650;28;20702;-62
2022/04/17 12:38:27;;;;;;;3.92;1.10;;;;;;;;;;5092588;28;20066;-62
2022/04/17 12:40:53;;;;;;;2.47;1.00;;;;;;;;;;5092618;28;20012;-62
2022/04/17 12:43:20;;;;;;;2.67;0.90;;;;;;;;;;5092251;28;20048;-63
2022/04/17 12:45:55;;;;;;;3.17;1.15;;;;;;;;;;5092260;28;20072;-62
2022/04/17 12:48:25;;;;;;;2.22;0.93;;;;;;;;;;5092249;28;20024;-62
2022/04/17 12:50:56;;;;;;;3.22;1.30;;;;;;;;;;5091789;28;20085;-62
2022/04/17 12:53:22;;;;;;;1.98;1.05;;;;;;;;;;5091955;28;20028;-62
2022/04/17 12:55:52;;;;;;;3.92;1.05;;;;;;;;;;5092270;28;20016;-62
2022/04/17 12:58:18;;;;;;;2.53;1.05;;;;;;;;;;5092635;28;20032;-62
2022/04/17 13:00:54;;;;;;;3.15;1.30;;;;;;;;;;5092329;28;20024;-62
2022/04/17 13:03:20;;;;;;;2.83;1.02;;;;;;;;;;5073806;28;20031;-62
2022/04/17 13:05:58;;;;;;;2.58;0.90;;;;;;;;;;5091640;28;20564;-61
2022/04/17 13:08:24;;;;;;;2.30;0.93;;;;;;;;;;5099187;28;20040;-62
2022/04/17 13:10:50;;;;;;;2.45;1.15;;;;;;;;;;5112332;28;20077;-62
2022/04/17 13:13:16;;;;;;;2.55;1.05;;;;;;;;;;5112189;28;20031;-62
2022/04/17 13:15:43;;;;;;;2.30;0.90;;;;;;;;;;5112324;28;20020;-62
2022/04/17 13:18:09;;;;;;;2.65;1.20;;;;;;;;;;5112376;28;20019;-62
2022/04/17 13:20:35;;;;;;;4.18;1.30;;;;;;;;;;5112046;28;20023;-62
2022/04/17 13:23:05;;;;;;;3.15;1.30;;;;;;;;;;5111982;28;20019;-62
2022/04/17 13:25:31;;;;;;;2.40;1.05;;;;;;;;;;5112035;28;20061;-62
2022/04/17 13:27:57;;;;;;;2.67;1.00;;;;;;;;;;5112425;28;20465;-62
2022/04/17 13:30:23;;;;;;;2.95;1.10;;;;;;;;;;5093807;28;20034;-62
2022/04/17 13:32:49;;;;;;;2.92;1.10;;;;;;;;;;5112058;28;20535;-62
2022/04/17 13:35:16;;;;;;;2.40;1.10;;;;;;;;;;5112017;28;20027;-62
2022/04/17 13:40:27;;;;;;;3.05;1.20;;;;;;;;;;5112152;28;20406;-62
2022/04/17 13:42:53;;;;;;;2.95;1.10;;;;;;;;;;5111631;28;20632;-62
2022/04/17 13:45:19;;;;;;;2.45;1.13;;;;;;;;;;5111598;28;20107;-62
2022/04/17 13:47:45;;;;;;;5.70;1.30;;;;;;;;;;5111773;28;20028;-62
2022/04/17 13:50:11;;;;;;;3.20;1.10;;;;;;;;;;5111593;28;20050;-62
2022/04/17 13:52:38;;;;;;;2.05;0.80;;;;;;;;;;5111721;28;20470;-62
2022/04/17 13:55:04;;;;;;;4.93;1.10;;;;;;;;;;5111662;28;20028;-62
2022/04/17 13:57:31;;;;;;;2.63;1.00;;;;;;;;;;5111581;28;20023;-62
2022/04/17 13:59:57;;;;;;;1.92;1.00;;;;;;;;;;5111635;28;20016;-62
2022/04/17 14:02:23;;;;;;;2.72;0.95;;;;;;;;;;5111672;28;20068;-62
2022/04/17 14:04:49;;;;;;;2.92;1.00;;;;;;;;;;5111685;28;20102;-62
2022/04/17 14:07:15;;;;;;;2.63;0.98;;;;;;;;;;5111547;28;20026;-62
2022/04/17 14:09:42;;;;;;;3.53;1.00;;;;;;;;;;5111638;28;20493;-62
2022/04/17 14:12:10;;;;;;;4.65;0.95;;;;;;;;;;5111550;28;20032;-62
2022/04/17 14:14:37;;;;;;;2.40;0.95;;;;;;;;;;5111523;28;20076;-62
2022/04/17 14:17:03;;;;;;;2.53;0.95;;;;;;;;;;5111263;28;20015;-63
2022/04/17 14:19:29;;;;;;;2.05;0.95;;;;;;;;;;5114999;28;20427;-62
2022/04/17 14:21:55;;;;;;;3.58;1.50;;;;;;;;;;5115601;28;20027;-62
2022/04/17 14:24:21;;;;;;;2.15;0.90;;;;;;;;;;5115577;28;20539;-61
2022/04/17 14:26:47;;;;;;;4.22;1.20;;;;;;;;;;5115574;28;20028;-61
2022/04/17 14:29:13;;;;;;;2.20;0.88;;;;;;;;;;5115591;28;20046;-62
2022/04/17 14:31:39;;;;;;;3.80;0.80;;;;;;;;;;5115253;28;20036;-61
2022/04/17 14:34:06;;;;;;;4.05;0.98;;;;;;;;;;5115296;28;20035;-61
2022/04/17 14:36:32;;;;;;;4.38;1.05;;;;;;;;;;5115359;28;20414;-62
2022/04/17 14:38:58;;;;;;;3.47;0.93;;;;;;;;;;5115359;28;20026;-62
2022/04/17 14:41:24;;;;;;;2.08;1.00;;;;;;;;;;5115304;28;20027;-61
2022/04/17 14:43:50;;;;;;;2.08;1.15;;;;;;;;;;5115134;28;20032;-61
2022/04/17 14:46:16;;;;;;;2.35;1.13;;;;;;;;;;5115188;28;20023;-61
2022/04/17 14:48:42;;;;;;;2.45;1.00;;;;;;;;;;5115105;28;20020;-61
2022/04/17 14:51:11;;;;;;;2.33;0.90;;;;;;;;;;5114747;28;20028;-62
2022/04/17 14:53:37;;;;;;;2.08;1.00;;;;;;;;;;5114855;28;20072;-62
2022/04/17 14:56:03;;;;;;;2.30;0.90;;;;;;;;;;5114959;28;20019;-62
2022/04/17 14:58:30;;;;;;;2.08;0.98;;;;;;;;;;5115001;28;20015;-62
2022/04/17 15:00:56;;;;;;;2.63;1.00;;;;;;;;;;5114996;28;20522;-62
2022/04/17 15:03:25;;;;;;;4.38;1.10;;;;;;;;;;5114785;28;20028;-61
2022/04/17 15:05:51;;;;;;;2.00;0.93;;;;;;;;;;5096557;28;20545;-62